sensor_id;sensor_type;location;lat;lon;timestamp;temperature;humidity
13521;DHT22;6832;51.186;3.236;2023-03-17T00:00:34;17.10;56.10
13521;DHT22;6832;51.186;3.236;2023-03-17T00:03:01;17.10;56.10
13521;DHT22;6832;51.186;3.236;2023-03-17T00:05:30;17.10;56.10
13521;DHT22;6832;51.186;3.236;2023-03-17T00:08:03;17.10;56.10
13521;DHT22;6832;51.186;3.236;2023-03-17T00:10:33;17.10;56.00
13521;DHT22;6832;51.186;3.236;2023-03-17T00:13:01;17.10;56.70
13521;DHT22;6832;51.186;3.236;2023-03-17T00:15:28;17.00;56.00
13521;DHT22;6832;51.186;3.236;2023-03-17T00:17:56;17.10;56.10
13521;DHT22;6832;51.186;3.236;2023-03-17T00:20:25;17.10;56.10
13521;DHT22;6832;51.186;3.236;2023-03-17T00:22:52;17.00;56.00
13521;DHT22;6832;51.186;3.236;2023-03-17T00:25:23;17.10;56.10
13521;DHT22;6832;51.186;3.236;2023-03-17T00:27:53;17.00;56.00
13521;DHT22;6832;51.186;3.236;2023-03-17T00:30:21;17.00;56.00
13521;DHT22;6832;51.186;3.236;2023-03-17T00:32:51;17.00;56.00
13521;DHT22;6832;51.186;3.236;2023-03-17T00:35:21;17.00;56.00
13521;DHT22;6832;51.186;3.236;2023-03-17T00:37:49;17.00;56.00
13521;DHT22;6832;51.186;3.236;2023-03-17T00:40:20;17.00;56.00
13521;DHT22;6832;51.186;3.236;2023-03-17T00:42:49;17.00;55.90
13521;DHT22;6832;51.186;3.236;2023-03-17T00:45:18;17.00;55.90
13521;DHT22;6832;51.186;3.236;2023-03-17T00:47:46;17.00;55.90
13521;DHT22;6832;51.186;3.236;2023-03-17T00:50:17;17.00;55.90
13521;DHT22;6832;51.186;3.236;2023-03-17T00:52:44;17.00;55.90
13521;DHT22;6832;51.186;3.236;2023-03-17T00:55:12;17.00;55.90
13521;DHT22;6832;51.186;3.236;2023-03-17T00:57:39;17.00;56.00
13521;DHT22;6832;51.186;3.236;2023-03-17T01:00:18;17.00;56.00
13521;DHT22;6832;51.186;3.236;2023-03-17T01:02:49;16.90;55.80
13521;DHT22;6832;51.186;3.236;2023-03-17T01:05:17;16.90;55.90
13521;DHT22;6832;51.186;3.236;2023-03-17T01:07:45;16.90;55.90
13521;DHT22;6832;51.186;3.236;2023-03-17T01:10:19;16.90;55.90
13521;DHT22;6832;51.186;3.236;2023-03-17T01:12:47;16.90;55.90
13521;DHT22;6832;51.186;3.236;2023-03-17T01:15:14;16.90;55.90
13521;DHT22;6832;51.186;3.236;2023-03-17T01:17:43;16.90;55.90
13521;DHT22;6832;51.186;3.236;2023-03-17T01:20:15;16.90;55.90
13521;DHT22;6832;51.186;3.236;2023-03-17T01:22:44;16.90;55.90
13521;DHT22;6832;51.186;3.236;2023-03-17T01:25:14;16.90;55.90
13521;DHT22;6832;51.186;3.236;2023-03-17T01:27:42;16.90;55.90
13521;DHT22;6832;51.186;3.236;2023-03-17T01:30:21;16.90;55.90
13521;DHT22;6832;51.186;3.236;2023-03-17T01:32:49;16.90;55.90
13521;DHT22;6832;51.186;3.236;2023-03-17T01:35:17;16.90;55.90
13521;DHT22;6832;51.186;3.236;2023-03-17T01:37:45;16.90;55.90
13521;DHT22;6832;51.186;3.236;2023-03-17T01:40:14;16.80;55.80
13521;DHT22;6832;51.186;3.236;2023-03-17T01:42:43;16.90;55.90
13521;DHT22;6832;51.186;3.236;2023-03-17T01:48:13;16.80;55.80
13521;DHT22;6832;51.186;3.236;2023-03-17T01:50:43;16.80;55.80
13521;DHT22;6832;51.186;3.236;2023-03-17T01:53:10;16.90;55.90
13521;DHT22;6832;51.186;3.236;2023-03-17T01:55:39;16.80;55.90
13521;DHT22;6832;51.186;3.236;2023-03-17T01:58:07;16.80;55.80
13521;DHT22;6832;51.186;3.236;2023-03-17T02:00:35;16.80;55.80
13521;DHT22;6832;51.186;3.236;2023-03-17T02:03:02;16.80;55.90
13521;DHT22;6832;51.186;3.236;2023-03-17T02:05:32;16.80;55.90
13521;DHT22;6832;51.186;3.236;2023-03-17T02:07:59;16.80;55.80
13521;DHT22;6832;51.186;3.236;2023-03-17T02:10:29;16.80;55.90
13521;DHT22;6832;51.186;3.236;2023-03-17T02:12:58;16.80;55.90
13521;DHT22;6832;51.186;3.236;2023-03-17T02:15:36;16.80;55.90
13521;DHT22;6832;51.186;3.236;2023-03-17T02:18:03;16.80;55.80
13521;DHT22;6832;51.186;3.236;2023-03-17T02:23:39;16.80;55.80
13521;DHT22;6832;51.186;3.236;2023-03-17T02:26:06;16.80;55.80
13521;DHT22;6832;51.186;3.236;2023-03-17T02:28:34;16.80;55.90
13521;DHT22;6832;51.186;3.236;2023-03-17T02:31:01;16.80;55.90
13521;DHT22;6832;51.186;3.236;2023-03-17T02:33:29;16.80;55.90
13521;DHT22;6832;51.186;3.236;2023-03-17T02:35:56;16.70;55.80
13521;DHT22;6832;51.186;3.236;2023-03-17T02:38:23;16.70;55.80
13521;DHT22;6832;51.186;3.236;2023-03-17T02:40:51;16.70;55.80
13521;DHT22;6832;51.186;3.236;2023-03-17T02:43:18;16.70;55.70
13521;DHT22;6832;51.186;3.236;2023-03-17T02:45:45;16.70;55.80
13521;DHT22;6832;51.186;3.236;2023-03-17T02:48:12;16.70;55.80
13521;DHT22;6832;51.186;3.236;2023-03-17T02:50:41;16.70;55.70
13521;DHT22;6832;51.186;3.236;2023-03-17T02:53:08;16.70;55.80
13521;DHT22;6832;51.186;3.236;2023-03-17T02:55:35;16.70;55.80
13521;DHT22;6832;51.186;3.236;2023-03-17T02:58:03;16.70;55.80
13521;DHT22;6832;51.186;3.236;2023-03-17T03:00:30;16.70;55.70
13521;DHT22;6832;51.186;3.236;2023-03-17T03:03:00;16.70;55.70
13521;DHT22;6832;51.186;3.236;2023-03-17T03:05:27;16.70;55.80
13521;DHT22;6832;51.186;3.236;2023-03-17T03:07:54;16.70;55.70
13521;DHT22;6832;51.186;3.236;2023-03-17T03:10:21;16.70;55.70
13521;DHT22;6832;51.186;3.236;2023-03-17T03:12:48;16.70;55.80
13521;DHT22;6832;51.186;3.236;2023-03-17T03:15:19;16.70;55.80
13521;DHT22;6832;51.186;3.236;2023-03-17T03:17:46;16.70;55.80
13521;DHT22;6832;51.186;3.236;2023-03-17T03:20:12;16.70;55.80
13521;DHT22;6832;51.186;3.236;2023-03-17T03:22:39;16.70;55.80
13521;DHT22;6832;51.186;3.236;2023-03-17T03:25:07;16.70;55.80
13521;DHT22;6832;51.186;3.236;2023-03-17T03:27:34;16.70;55.80
13521;DHT22;6832;51.186;3.236;2023-03-17T03:30:02;16.70;55.80
13521;DHT22;6832;51.186;3.236;2023-03-17T03:32:33;16.70;55.80
13521;DHT22;6832;51.186;3.236;2023-03-17T03:35:02;16.70;56.30
13521;DHT22;6832;51.186;3.236;2023-03-17T03:37:29;16.70;55.80
13521;DHT22;6832;51.186;3.236;2023-03-17T03:39:56;16.70;55.70
13521;DHT22;6832;51.186;3.236;2023-03-17T03:42:23;16.70;55.80
13521;DHT22;6832;51.186;3.236;2023-03-17T03:44:50;16.70;55.80
13521;DHT22;6832;51.186;3.236;2023-03-17T03:47:17;16.70;55.70
13521;DHT22;6832;51.186;3.236;2023-03-17T03:49:45;16.70;55.70
13521;DHT22;6832;51.186;3.236;2023-03-17T03:52:12;16.70;55.70
13521;DHT22;6832;51.186;3.236;2023-03-17T03:54:39;16.70;55.70
13521;DHT22;6832;51.186;3.236;2023-03-17T03:57:06;16.70;55.80
13521;DHT22;6832;51.186;3.236;2023-03-17T03:59:33;16.70;55.70
13521;DHT22;6832;51.186;3.236;2023-03-17T04:02:00;16.70;55.70
13521;DHT22;6832;51.186;3.236;2023-03-17T04:04:26;16.70;55.80
13521;DHT22;6832;51.186;3.236;2023-03-17T04:06:55;16.60;55.60
13521;DHT22;6832;51.186;3.236;2023-03-17T04:09:22;16.60;55.60
13521;DHT22;6832;51.186;3.236;2023-03-17T04:11:48;16.60;55.60
13521;DHT22;6832;51.186;3.236;2023-03-17T04:14:15;16.60;55.70
13521;DHT22;6832;51.186;3.236;2023-03-17T04:16:43;16.60;55.70
13521;DHT22;6832;51.186;3.236;2023-03-17T04:19:10;16.60;55.70
13521;DHT22;6832;51.186;3.236;2023-03-17T04:21:37;16.60;55.70
13521;DHT22;6832;51.186;3.236;2023-03-17T04:24:06;16.60;55.70
13521;DHT22;6832;51.186;3.236;2023-03-17T04:26:33;16.60;55.60
13521;DHT22;6832;51.186;3.236;2023-03-17T04:29:00;16.60;55.60
13521;DHT22;6832;51.186;3.236;2023-03-17T04:31:27;16.60;55.70
13521;DHT22;6832;51.186;3.236;2023-03-17T04:33:54;16.60;55.70
13521;DHT22;6832;51.186;3.236;2023-03-17T04:36:22;16.60;55.70
13521;DHT22;6832;51.186;3.236;2023-03-17T04:38:49;16.60;55.70
13521;DHT22;6832;51.186;3.236;2023-03-17T04:41:18;16.60;55.60
13521;DHT22;6832;51.186;3.236;2023-03-17T04:43:45;16.60;55.60
13521;DHT22;6832;51.186;3.236;2023-03-17T04:46:13;16.60;55.70
13521;DHT22;6832;51.186;3.236;2023-03-17T04:48:41;16.60;55.70
13521;DHT22;6832;51.186;3.236;2023-03-17T04:51:08;16.70;55.80
13521;DHT22;6832;51.186;3.236;2023-03-17T04:53:35;16.60;55.70
13521;DHT22;6832;51.186;3.236;2023-03-17T04:56:02;16.50;55.60
13521;DHT22;6832;51.186;3.236;2023-03-17T04:58:30;16.60;55.80
13521;DHT22;6832;51.186;3.236;2023-03-17T05:00:57;16.60;55.80
13521;DHT22;6832;51.186;3.236;2023-03-17T05:03:24;16.60;55.80
13521;DHT22;6832;51.186;3.236;2023-03-17T05:05:52;16.60;55.80
13521;DHT22;6832;51.186;3.236;2023-03-17T05:08:19;16.60;55.80
13521;DHT22;6832;51.186;3.236;2023-03-17T05:10:46;16.60;55.80
13521;DHT22;6832;51.186;3.236;2023-03-17T05:13:13;16.60;55.80
13521;DHT22;6832;51.186;3.236;2023-03-17T05:15:43;16.60;55.80
13521;DHT22;6832;51.186;3.236;2023-03-17T05:18:12;16.60;55.80
13521;DHT22;6832;51.186;3.236;2023-03-17T05:20:39;16.70;55.80
13521;DHT22;6832;51.186;3.236;2023-03-17T05:23:08;16.60;55.80
13521;DHT22;6832;51.186;3.236;2023-03-17T05:25:35;16.60;55.80
13521;DHT22;6832;51.186;3.236;2023-03-17T05:28:02;16.60;55.70
13521;DHT22;6832;51.186;3.236;2023-03-17T05:30:30;16.60;55.70
13521;DHT22;6832;51.186;3.236;2023-03-17T05:32:59;16.60;55.70
13521;DHT22;6832;51.186;3.236;2023-03-17T05:35:26;16.50;55.60
13521;DHT22;6832;51.186;3.236;2023-03-17T05:37:53;16.60;55.70
13521;DHT22;6832;51.186;3.236;2023-03-17T05:40:20;16.60;55.70
13521;DHT22;6832;51.186;3.236;2023-03-17T05:42:48;16.60;55.60
13521;DHT22;6832;51.186;3.236;2023-03-17T05:45:16;16.60;55.70
13521;DHT22;6832;51.186;3.236;2023-03-17T05:47:43;16.60;55.70
13521;DHT22;6832;51.186;3.236;2023-03-17T05:50:11;16.60;55.70
13521;DHT22;6832;51.186;3.236;2023-03-17T05:52:38;16.60;55.60
13521;DHT22;6832;51.186;3.236;2023-03-17T05:55:06;16.60;55.60
13521;DHT22;6832;51.186;3.236;2023-03-17T05:57:33;16.60;55.60
13521;DHT22;6832;51.186;3.236;2023-03-17T06:00:00;16.60;55.60
13521;DHT22;6832;51.186;3.236;2023-03-17T06:02:33;16.60;55.60
13521;DHT22;6832;51.186;3.236;2023-03-17T06:05:00;16.60;55.60
13521;DHT22;6832;51.186;3.236;2023-03-17T06:07:28;16.60;55.60
13521;DHT22;6832;51.186;3.236;2023-03-17T06:09:55;16.60;55.60
13521;DHT22;6832;51.186;3.236;2023-03-17T06:12:22;16.60;55.50
13521;DHT22;6832;51.186;3.236;2023-03-17T06:14:50;16.60;55.60
13521;DHT22;6832;51.186;3.236;2023-03-17T06:17:17;16.50;55.50
13521;DHT22;6832;51.186;3.236;2023-03-17T06:19:44;16.60;56.20
13521;DHT22;6832;51.186;3.236;2023-03-17T06:22:11;16.50;55.50
13521;DHT22;6832;51.186;3.236;2023-03-17T06:24:39;16.50;55.50
13521;DHT22;6832;51.186;3.236;2023-03-17T06:27:06;16.50;55.40
13521;DHT22;6832;51.186;3.236;2023-03-17T06:29:35;16.50;55.40
13521;DHT22;6832;51.186;3.236;2023-03-17T06:32:02;16.60;55.50
13521;DHT22;6832;51.186;3.236;2023-03-17T06:34:30;16.50;55.50
13521;DHT22;6832;51.186;3.236;2023-03-17T06:36:57;16.40;55.40
13521;DHT22;6832;51.186;3.236;2023-03-17T06:39:24;16.50;55.50
13521;DHT22;6832;51.186;3.236;2023-03-17T06:41:52;16.50;55.50
13521;DHT22;6832;51.186;3.236;2023-03-17T06:44:19;16.50;55.40
13521;DHT22;6832;51.186;3.236;2023-03-17T06:46:47;16.50;55.40
13521;DHT22;6832;51.186;3.236;2023-03-17T06:49:14;16.50;55.50
13521;DHT22;6832;51.186;3.236;2023-03-17T06:51:41;16.50;55.50
13521;DHT22;6832;51.186;3.236;2023-03-17T06:54:08;16.50;55.50
13521;DHT22;6832;51.186;3.236;2023-03-17T06:56:36;16.50;55.50
13521;DHT22;6832;51.186;3.236;2023-03-17T06:59:04;16.50;55.50
13521;DHT22;6832;51.186;3.236;2023-03-17T07:01:31;16.50;56.20
13521;DHT22;6832;51.186;3.236;2023-03-17T07:03:58;16.50;55.60
13521;DHT22;6832;51.186;3.236;2023-03-17T07:06:25;16.50;55.50
13521;DHT22;6832;51.186;3.236;2023-03-17T07:08:53;16.50;55.50
13521;DHT22;6832;51.186;3.236;2023-03-17T07:11:20;16.50;55.50
13521;DHT22;6832;51.186;3.236;2023-03-17T07:13:50;16.50;55.60
13521;DHT22;6832;51.186;3.236;2023-03-17T07:16:22;16.50;55.50
13521;DHT22;6832;51.186;3.236;2023-03-17T07:18:49;16.50;55.50
13521;DHT22;6832;51.186;3.236;2023-03-17T07:21:16;16.50;55.50
13521;DHT22;6832;51.186;3.236;2023-03-17T07:23:43;16.50;55.50
13521;DHT22;6832;51.186;3.236;2023-03-17T07:26:09;16.50;55.60
13521;DHT22;6832;51.186;3.236;2023-03-17T07:28:37;16.50;55.60
13521;DHT22;6832;51.186;3.236;2023-03-17T07:31:04;16.50;55.60
13521;DHT22;6832;51.186;3.236;2023-03-17T07:33:34;16.50;55.60
13521;DHT22;6832;51.186;3.236;2023-03-17T07:36:02;16.50;55.50
13521;DHT22;6832;51.186;3.236;2023-03-17T07:38:32;16.50;55.50
13521;DHT22;6832;51.186;3.236;2023-03-17T07:40:59;16.50;55.50
13521;DHT22;6832;51.186;3.236;2023-03-17T07:43:25;16.50;55.50
13521;DHT22;6832;51.186;3.236;2023-03-17T07:45:52;16.50;55.50
13521;DHT22;6832;51.186;3.236;2023-03-17T07:48:19;16.50;55.50
13521;DHT22;6832;51.186;3.236;2023-03-17T07:50:48;16.50;55.50
13521;DHT22;6832;51.186;3.236;2023-03-17T07:53:15;16.50;55.50
13521;DHT22;6832;51.186;3.236;2023-03-17T07:55:43;16.50;55.50
13521;DHT22;6832;51.186;3.236;2023-03-17T07:58:10;16.50;55.50
13521;DHT22;6832;51.186;3.236;2023-03-17T08:00:39;16.50;55.50
13521;DHT22;6832;51.186;3.236;2023-03-17T08:03:06;16.50;55.50
13521;DHT22;6832;51.186;3.236;2023-03-17T08:05:33;16.50;55.50
13521;DHT22;6832;51.186;3.236;2023-03-17T08:08:01;16.50;55.50
13521;DHT22;6832;51.186;3.236;2023-03-17T08:10:29;16.50;55.50
13521;DHT22;6832;51.186;3.236;2023-03-17T08:12:56;16.50;55.50
13521;DHT22;6832;51.186;3.236;2023-03-17T08:15:24;16.50;55.50
13521;DHT22;6832;51.186;3.236;2023-03-17T08:17:51;16.50;55.50
13521;DHT22;6832;51.186;3.236;2023-03-17T08:20:19;16.50;55.50
13521;DHT22;6832;51.186;3.236;2023-03-17T08:22:46;16.50;55.50
13521;DHT22;6832;51.186;3.236;2023-03-17T08:25:14;16.50;55.60
13521;DHT22;6832;51.186;3.236;2023-03-17T08:27:42;16.50;55.50
13521;DHT22;6832;51.186;3.236;2023-03-17T08:30:10;16.40;55.50
13521;DHT22;6832;51.186;3.236;2023-03-17T08:32:37;16.50;55.60
13521;DHT22;6832;51.186;3.236;2023-03-17T08:35:05;16.50;55.60
13521;DHT22;6832;51.186;3.236;2023-03-17T08:37:32;16.50;55.60
13521;DHT22;6832;51.186;3.236;2023-03-17T08:39:59;16.50;55.60
13521;DHT22;6832;51.186;3.236;2023-03-17T08:42:28;16.50;55.60
13521;DHT22;6832;51.186;3.236;2023-03-17T08:44:55;16.50;55.60
13521;DHT22;6832;51.186;3.236;2023-03-17T08:47:22;16.50;55.60
13521;DHT22;6832;51.186;3.236;2023-03-17T08:49:49;16.50;55.60
13521;DHT22;6832;51.186;3.236;2023-03-17T08:52:16;16.50;55.70
13521;DHT22;6832;51.186;3.236;2023-03-17T08:54:43;16.50;55.70
13521;DHT22;6832;51.186;3.236;2023-03-17T08:57:11;16.50;55.70
13521;DHT22;6832;51.186;3.236;2023-03-17T08:59:40;16.50;55.70
13521;DHT22;6832;51.186;3.236;2023-03-17T09:02:09;16.50;55.70
13521;DHT22;6832;51.186;3.236;2023-03-17T09:04:37;16.50;55.70
13521;DHT22;6832;51.186;3.236;2023-03-17T09:07:04;16.50;55.70
13521;DHT22;6832;51.186;3.236;2023-03-17T09:09:32;16.50;55.70
13521;DHT22;6832;51.186;3.236;2023-03-17T09:11:59;16.50;55.70
13521;DHT22;6832;51.186;3.236;2023-03-17T09:14:27;16.50;55.70
13521;DHT22;6832;51.186;3.236;2023-03-17T09:16:56;16.50;55.70
13521;DHT22;6832;51.186;3.236;2023-03-17T09:19:26;16.60;55.80
13521;DHT22;6832;51.186;3.236;2023-03-17T09:21:53;16.50;55.70
13521;DHT22;6832;51.186;3.236;2023-03-17T09:24:20;16.50;55.70
13521;DHT22;6832;51.186;3.236;2023-03-17T09:26:47;16.60;55.80
13521;DHT22;6832;51.186;3.236;2023-03-17T09:29:14;16.60;55.80
13521;DHT22;6832;51.186;3.236;2023-03-17T09:31:41;16.60;55.80
13521;DHT22;6832;51.186;3.236;2023-03-17T09:34:10;16.50;55.70
13521;DHT22;6832;51.186;3.236;2023-03-17T09:36:37;16.60;55.80
13521;DHT22;6832;51.186;3.236;2023-03-17T09:39:04;16.60;55.80
13521;DHT22;6832;51.186;3.236;2023-03-17T09:41:57;16.60;55.80
13521;DHT22;6832;51.186;3.236;2023-03-17T09:44:34;16.60;55.80
13521;DHT22;6832;51.186;3.236;2023-03-17T09:47:10;16.70;55.90
13521;DHT22;6832;51.186;3.236;2023-03-17T09:49:47;16.60;55.80
13521;DHT22;6832;51.186;3.236;2023-03-17T09:52:16;16.60;55.80
13521;DHT22;6832;51.186;3.236;2023-03-17T09:54:45;16.60;55.80
13521;DHT22;6832;51.186;3.236;2023-03-17T09:57:17;16.60;55.80
13521;DHT22;6832;51.186;3.236;2023-03-17T09:59:49;16.70;55.90
13521;DHT22;6832;51.186;3.236;2023-03-17T10:02:22;16.60;55.80
13521;DHT22;6832;51.186;3.236;2023-03-17T10:04:58;16.70;55.90
13521;DHT22;6832;51.186;3.236;2023-03-17T10:07:35;16.70;55.90
13521;DHT22;6832;51.186;3.236;2023-03-17T10:10:13;16.70;55.90
13521;DHT22;6832;51.186;3.236;2023-03-17T10:12:46;16.70;55.90
13521;DHT22;6832;51.186;3.236;2023-03-17T10:15:18;16.70;55.90
13521;DHT22;6832;51.186;3.236;2023-03-17T10:17:49;16.70;55.90
13521;DHT22;6832;51.186;3.236;2023-03-17T10:20:23;16.70;55.90
13521;DHT22;6832;51.186;3.236;2023-03-17T10:22:53;16.70;55.90
13521;DHT22;6832;51.186;3.236;2023-03-17T10:25:24;16.70;55.90
13521;DHT22;6832;51.186;3.236;2023-03-17T10:27:57;16.70;55.90
13521;DHT22;6832;51.186;3.236;2023-03-17T10:30:25;16.70;55.90
13521;DHT22;6832;51.186;3.236;2023-03-17T10:32:54;16.70;55.90
13521;DHT22;6832;51.186;3.236;2023-03-17T10:35:26;16.80;56.00
13521;DHT22;6832;51.186;3.236;2023-03-17T10:37:53;16.80;56.00
13521;DHT22;6832;51.186;3.236;2023-03-17T10:40:22;16.70;55.90
13521;DHT22;6832;51.186;3.236;2023-03-17T10:42:53;16.80;56.00
13521;DHT22;6832;51.186;3.236;2023-03-17T10:45:26;16.80;56.00
13521;DHT22;6832;51.186;3.236;2023-03-17T10:47:55;16.90;56.00
13521;DHT22;6832;51.186;3.236;2023-03-17T10:50:25;16.80;56.00
13521;DHT22;6832;51.186;3.236;2023-03-17T10:52:57;16.80;56.00
13521;DHT22;6832;51.186;3.236;2023-03-17T10:55:28;16.90;56.00
13521;DHT22;6832;51.186;3.236;2023-03-17T10:58:12;16.90;56.00
13521;DHT22;6832;51.186;3.236;2023-03-17T11:00:54;16.90;56.00
13521;DHT22;6832;51.186;3.236;2023-03-17T11:03:25;16.90;56.00
13521;DHT22;6832;51.186;3.236;2023-03-17T11:06:00;16.90;56.00
13521;DHT22;6832;51.186;3.236;2023-03-17T11:08:32;16.90;56.00
13521;DHT22;6832;51.186;3.236;2023-03-17T11:11:04;16.90;56.00
13521;DHT22;6832;51.186;3.236;2023-03-17T11:13:31;16.90;56.00
13521;DHT22;6832;51.186;3.236;2023-03-17T11:16:07;17.00;56.10
13521;DHT22;6832;51.186;3.236;2023-03-17T11:18:39;17.00;56.20
13521;DHT22;6832;51.186;3.236;2023-03-17T11:21:10;17.00;56.10
13521;DHT22;6832;51.186;3.236;2023-03-17T11:23:44;17.00;56.10
13521;DHT22;6832;51.186;3.236;2023-03-17T11:26:21;17.00;56.10
13521;DHT22;6832;51.186;3.236;2023-03-17T11:28:54;17.00;56.10
13521;DHT22;6832;51.186;3.236;2023-03-17T11:31:27;17.10;56.20
13521;DHT22;6832;51.186;3.236;2023-03-17T11:34:05;17.10;56.20
13521;DHT22;6832;51.186;3.236;2023-03-17T11:36:43;17.10;56.20
13521;DHT22;6832;51.186;3.236;2023-03-17T11:39:22;17.10;56.20
13521;DHT22;6832;51.186;3.236;2023-03-17T11:42:00;17.10;56.20
13521;DHT22;6832;51.186;3.236;2023-03-17T11:48:04;17.10;56.20
13521;DHT22;6832;51.186;3.236;2023-03-17T11:50:38;17.20;56.30
13521;DHT22;6832;51.186;3.236;2023-03-17T11:53:30;17.20;56.30
13521;DHT22;6832;51.186;3.236;2023-03-17T11:56:09;17.20;56.30
13521;DHT22;6832;51.186;3.236;2023-03-17T11:58:41;17.20;56.30
13521;DHT22;6832;51.186;3.236;2023-03-17T12:01:13;17.20;56.30
13521;DHT22;6832;51.186;3.236;2023-03-17T12:03:45;17.20;56.30
13521;DHT22;6832;51.186;3.236;2023-03-17T12:06:20;17.20;56.30
13521;DHT22;6832;51.186;3.236;2023-03-17T12:08:53;17.20;56.30
13521;DHT22;6832;51.186;3.236;2023-03-17T12:14:28;17.30;56.40
13521;DHT22;6832;51.186;3.236;2023-03-17T12:17:03;17.30;56.40
13521;DHT22;6832;51.186;3.236;2023-03-17T12:19:39;17.30;56.40
13521;DHT22;6832;51.186;3.236;2023-03-17T12:22:18;17.40;56.50
13521;DHT22;6832;51.186;3.236;2023-03-17T12:24:52;17.40;56.60
13521;DHT22;6832;51.186;3.236;2023-03-17T12:27:26;17.40;56.50
13521;DHT22;6832;51.186;3.236;2023-03-17T12:29:57;17.40;56.50
13521;DHT22;6832;51.186;3.236;2023-03-17T12:32:33;17.40;56.50
13521;DHT22;6832;51.186;3.236;2023-03-17T12:35:07;17.50;56.60
13521;DHT22;6832;51.186;3.236;2023-03-17T12:37:38;17.50;56.60
13521;DHT22;6832;51.186;3.236;2023-03-17T12:40:13;17.50;56.50
13521;DHT22;6832;51.186;3.236;2023-03-17T12:42:47;17.50;56.60
13521;DHT22;6832;51.186;3.236;2023-03-17T12:45:34;17.60;56.60
13521;DHT22;6832;51.186;3.236;2023-03-17T12:48:23;17.60;56.60
13521;DHT22;6832;51.186;3.236;2023-03-17T12:54:09;17.60;56.60
13521;DHT22;6832;51.186;3.236;2023-03-17T12:56:42;17.70;56.70
13521;DHT22;6832;51.186;3.236;2023-03-17T12:59:15;17.70;56.70
13521;DHT22;6832;51.186;3.236;2023-03-17T13:01:44;17.70;56.70
13521;DHT22;6832;51.186;3.236;2023-03-17T13:04:15;17.70;56.70
13521;DHT22;6832;51.186;3.236;2023-03-17T13:06:52;17.70;56.70
13521;DHT22;6832;51.186;3.236;2023-03-17T13:09:31;17.70;56.70
13521;DHT22;6832;51.186;3.236;2023-03-17T13:12:01;17.80;57.30
13521;DHT22;6832;51.186;3.236;2023-03-17T13:14:40;17.80;56.80
13521;DHT22;6832;51.186;3.236;2023-03-17T13:17:31;17.80;56.80
13521;DHT22;6832;51.186;3.236;2023-03-17T13:20:11;17.80;56.80
13521;DHT22;6832;51.186;3.236;2023-03-17T13:22:40;17.80;56.80
13521;DHT22;6832;51.186;3.236;2023-03-17T13:25:14;17.80;56.80
13521;DHT22;6832;51.186;3.236;2023-03-17T13:30:53;17.90;56.80
13521;DHT22;6832;51.186;3.236;2023-03-17T13:33:21;17.90;56.80
13521;DHT22;6832;51.186;3.236;2023-03-17T13:36:10;17.90;56.80
13521;DHT22;6832;51.186;3.236;2023-03-17T13:38:52;17.90;56.90
13521;DHT22;6832;51.186;3.236;2023-03-17T13:41:34;17.90;56.90
13521;DHT22;6832;51.186;3.236;2023-03-17T13:44:21;18.00;56.90
13521;DHT22;6832;51.186;3.236;2023-03-17T13:46:52;18.00;57.00
13521;DHT22;6832;51.186;3.236;2023-03-17T13:49:22;17.90;56.80
13521;DHT22;6832;51.186;3.236;2023-03-17T13:51:55;18.00;56.90
13521;DHT22;6832;51.186;3.236;2023-03-17T13:54:30;18.00;56.90
13521;DHT22;6832;51.186;3.236;2023-03-17T13:57:21;18.00;57.00
13521;DHT22;6832;51.186;3.236;2023-03-17T14:00:19;18.10;57.00
13521;DHT22;6832;51.186;3.236;2023-03-17T14:02:50;18.10;57.10
13521;DHT22;6832;51.186;3.236;2023-03-17T14:05:24;18.10;56.90
13521;DHT22;6832;51.186;3.236;2023-03-17T14:07:53;18.10;57.00
13521;DHT22;6832;51.186;3.236;2023-03-17T14:10:25;18.10;57.00
13521;DHT22;6832;51.186;3.236;2023-03-17T14:12:57;18.10;57.00
13521;DHT22;6832;51.186;3.236;2023-03-17T14:15:38;18.20;57.10
13521;DHT22;6832;51.186;3.236;2023-03-17T14:18:15;18.20;57.10
13521;DHT22;6832;51.186;3.236;2023-03-17T14:20:52;18.20;57.10
13521;DHT22;6832;51.186;3.236;2023-03-17T14:23:19;18.20;57.10
13521;DHT22;6832;51.186;3.236;2023-03-17T14:25:48;18.20;57.10
13521;DHT22;6832;51.186;3.236;2023-03-17T14:28:17;18.20;57.10
13521;DHT22;6832;51.186;3.236;2023-03-17T14:30:53;18.30;57.20
13521;DHT22;6832;51.186;3.236;2023-03-17T14:33:22;18.40;57.30
13521;DHT22;6832;51.186;3.236;2023-03-17T14:35:50;18.20;57.10
13521;DHT22;6832;51.186;3.236;2023-03-17T14:38:19;18.40;57.30
13521;DHT22;6832;51.186;3.236;2023-03-17T14:40:47;18.40;57.30
13521;DHT22;6832;51.186;3.236;2023-03-17T14:43:17;18.40;57.30
13521;DHT22;6832;51.186;3.236;2023-03-17T14:45:48;18.40;57.30
13521;DHT22;6832;51.186;3.236;2023-03-17T14:48:24;18.40;57.30
13521;DHT22;6832;51.186;3.236;2023-03-17T14:50:53;18.50;57.90
13521;DHT22;6832;51.186;3.236;2023-03-17T14:53:22;18.50;57.30
13521;DHT22;6832;51.186;3.236;2023-03-17T14:55:51;18.50;57.30
13521;DHT22;6832;51.186;3.236;2023-03-17T14:58:22;18.50;57.20
13521;DHT22;6832;51.186;3.236;2023-03-17T15:00:53;18.60;57.30
13521;DHT22;6832;51.186;3.236;2023-03-17T15:03:26;18.60;57.30
13521;DHT22;6832;51.186;3.236;2023-03-17T15:06:04;18.60;57.30
13521;DHT22;6832;51.186;3.236;2023-03-17T15:08:44;18.60;57.30
13521;DHT22;6832;51.186;3.236;2023-03-17T15:11:20;18.70;57.30
13521;DHT22;6832;51.186;3.236;2023-03-17T15:13:54;18.70;57.30
13521;DHT22;6832;51.186;3.236;2023-03-17T15:16:24;18.70;57.30
13521;DHT22;6832;51.186;3.236;2023-03-17T15:19:03;18.70;57.20
13521;DHT22;6832;51.186;3.236;2023-03-17T15:21:33;18.70;57.30
13521;DHT22;6832;51.186;3.236;2023-03-17T15:24:16;18.70;57.20
13521;DHT22;6832;51.186;3.236;2023-03-17T15:26:44;18.70;57.80
13521;DHT22;6832;51.186;3.236;2023-03-17T15:29:11;18.70;57.10
13521;DHT22;6832;51.186;3.236;2023-03-17T15:31:38;18.70;57.20
13521;DHT22;6832;51.186;3.236;2023-03-17T15:34:08;18.70;57.20
13521;DHT22;6832;51.186;3.236;2023-03-17T15:36:37;18.80;57.20
13521;DHT22;6832;51.186;3.236;2023-03-17T15:39:04;18.80;57.10
13521;DHT22;6832;51.186;3.236;2023-03-17T15:41:31;18.70;57.10
13521;DHT22;6832;51.186;3.236;2023-03-17T15:43:58;18.80;57.20
13521;DHT22;6832;51.186;3.236;2023-03-17T15:46:27;18.80;57.20
13521;DHT22;6832;51.186;3.236;2023-03-17T15:48:55;18.80;57.20
13521;DHT22;6832;51.186;3.236;2023-03-17T15:51:23;18.80;57.20
13521;DHT22;6832;51.186;3.236;2023-03-17T15:53:50;18.80;57.20
13521;DHT22;6832;51.186;3.236;2023-03-17T15:56:19;18.80;57.20
13521;DHT22;6832;51.186;3.236;2023-03-17T15:58:47;18.90;57.20
13521;DHT22;6832;51.186;3.236;2023-03-17T16:01:16;18.90;57.30
13521;DHT22;6832;51.186;3.236;2023-03-17T16:03:47;18.90;57.20
13521;DHT22;6832;51.186;3.236;2023-03-17T16:06:18;18.90;57.20
13521;DHT22;6832;51.186;3.236;2023-03-17T16:08:48;18.90;57.20
13521;DHT22;6832;51.186;3.236;2023-03-17T16:11:16;19.00;57.30
13521;DHT22;6832;51.186;3.236;2023-03-17T16:13:44;18.90;57.20
13521;DHT22;6832;51.186;3.236;2023-03-17T16:16:17;18.90;57.20
13521;DHT22;6832;51.186;3.236;2023-03-17T16:18:52;18.90;57.30
13521;DHT22;6832;51.186;3.236;2023-03-17T16:21:19;18.90;57.20